Time;durP1;ratioP1;P1;durP2;ratioP2;P2;SDS_P1;SDS_P2;PMS_P1;PMS_P2;Temp;Humidity;BMP_temperature;BMP_pressure;BME280_temperature;BME280_humidity;BME280_pressure;Samples;Min_cycle;Max_cycle;Signal;HPM_P1;HPM_P2
2022/08/27 00:00:16;;;;;;;3.17;0.70;;;;;;;12.09;68.83;100990.31;4976524;28;20650;-78
2022/08/27 00:02:43;;;;;;;3.60;0.80;;;;;;;12.11;68.85;100993.66;4980067;28;20126;-83
2022/08/27 00:05:13;;;;;;;1.90;0.68;;;;;;;12.06;68.80;100992.34;5001858;28;20034;-83
2022/08/27 00:07:41;;;;;;;1.80;0.60;;;;;;;12.02;68.81;100990.00;4963601;28;20047;-82
2022/08/27 00:10:09;;;;;;;3.08;0.75;;;;;;;11.98;68.88;100980.66;4969893;28;20030;-83
2022/08/27 00:12:35;;;;;;;2.80;0.80;;;;;;;11.93;68.98;100996.13;4968695;28;20041;-82
2022/08/27 00:15:03;;;;;;;4.68;0.70;;;;;;;11.93;68.63;100993.47;4963207;28;20042;-82
2022/08/27 00:17:28;;;;;;;2.08;0.68;;;;;;;11.98;68.65;100993.06;4980048;28;20045;-84
2022/08/27 00:19:54;;;;;;;3.65;0.98;;;;;;;11.94;68.80;100991.69;4979266;28;20587;-82
2022/08/27 00:22:21;;;;;;;3.97;0.73;;;;;;;11.90;68.49;100996.41;4966956;28;20072;-83
2022/08/27 00:24:46;;;;;;;2.13;0.75;;;;;;;11.86;68.97;100982.63;4981368;28;20053;-83
2022/08/27 00:27:12;;;;;;;2.97;0.88;;;;;;;11.88;69.07;100993.91;4969369;28;20795;-83
2022/08/27 00:29:38;;;;;;;1.95;0.70;;;;;;;11.87;68.97;100991.41;4961146;28;20481;-83
2022/08/27 00:32:04;;;;;;;3.35;1.13;;;;;;;11.85;69.21;100994.19;4975836;28;20043;-83
2022/08/27 00:34:30;;;;;;;3.88;1.05;;;;;;;11.89;69.11;100994.75;4977914;28;20105;-85
2022/08/27 00:36:56;;;;;;;3.35;1.00;;;;;;;11.89;69.18;100998.25;4979598;28;20030;-83
2022/08/27 00:39:22;;;;;;;5.35;1.10;;;;;;;11.86;69.41;101002.97;4975265;28;20164;-84
2022/08/27 00:41:48;;;;;;;3.33;0.80;;;;;;;11.82;69.45;100991.81;4969747;28;20493;-83
2022/08/27 00:44:14;;;;;;;2.42;0.88;;;;;;;11.88;69.44;100987.78;4998069;28;20034;-84
2022/08/27 00:46:46;;;;;;;1.52;0.80;;;;;;;11.90;69.24;100988.47;4997944;28;20434;-84
2022/08/27 00:49:35;;;;;;;2.95;0.85;;;;;;;11.87;69.16;100986.94;4999809;28;20043;-84
2022/08/27 00:52:15;;;;;;;3.40;0.80;;;;;;;11.81;69.06;100991.97;4983151;28;20069;-83
2022/08/27 00:54:41;;;;;;;2.53;0.95;;;;;;;11.68;69.59;100985.13;4981890;28;20121;-82
2022/08/27 00:57:07;;;;;;;5.65;1.40;;;;;;;11.62;70.04;100997.13;4994026;28;20069;-81
2022/08/27 00:59:33;;;;;;;2.72;1.02;;;;;;;11.65;70.01;100994.19;4996722;28;20042;-82
2022/08/27 01:02:18;;;;;;;3.30;1.10;;;;;;;11.69;70.14;100986.78;5003801;28;20030;-84
2022/08/27 01:04:55;;;;;;;5.93;1.35;;;;;;;11.65;70.40;100983.59;4987299;28;20035;-84
2022/08/27 01:07:23;;;;;;;5.25;1.25;;;;;;;11.68;70.75;100985.13;5000470;28;20106;-83
2022/08/27 01:09:50;;;;;;;3.05;0.90;;;;;;;11.71;70.61;100991.94;4965381;28;20035;-84
2022/08/27 01:12:18;;;;;;;4.30;1.45;;;;;;;11.65;70.53;100988.91;4962494;28;20123;-83
2022/08/27 01:14:46;;;;;;;4.47;1.00;;;;;;;11.65;70.91;100990.69;4971670;28;20384;-84
2022/08/27 01:17:13;;;;;;;2.13;0.88;;;;;;;11.70;70.82;100998.22;4967688;28;20041;-84
2022/08/27 01:19:48;;;;;;;2.72;0.88;;;;;;;11.71;71.07;100992.78;4945829;28;20517;-84
2022/08/27 01:22:35;;;;;;;3.38;0.80;;;;;;;11.70;70.74;100985.84;4964301;28;20035;-83
2022/08/27 01:25:09;;;;;;;3.13;1.10;;;;;;;11.67;70.84;100988.75;4965672;28;20042;-83
2022/08/27 01:27:35;;;;;;;3.45;0.90;;;;;;;11.61;70.99;100992.78;4925916;28;20039;-83
2022/08/27 01:30:02;;;;;;;2.45;0.80;;;;;;;11.63;71.13;100993.47;4986545;28;20037;-83
2022/08/27 01:32:33;;;;;;;5.63;0.77;;;;;;;11.66;71.33;100995.00;5004266;28;20038;-83
2022/08/27 01:35:02;;;;;;;4.55;1.38;;;;;;;11.59;71.30;100992.09;4989985;28;20042;-82
2022/08/27 01:37:28;;;;;;;6.00;0.80;;;;;;;11.57;71.60;100979.94;4950192;28;20058;-82
2022/08/27 01:39:56;;;;;;;3.55;0.95;;;;;;;11.62;71.38;100985.69;4946818;28;20169;-83
2022/08/27 01:42:35;;;;;;;4.55;0.73;;;;;;;11.59;71.40;100984.16;4986700;28;20041;-82
2022/08/27 01:45:26;;;;;;;1.58;0.73;;;;;;;11.55;71.24;100990.69;4989271;28;20396;-83
2022/08/27 01:47:52;;;;;;;4.95;0.80;;;;;;;11.46;71.22;100986.22;4980057;28;20050;-83
2022/08/27 01:50:23;;;;;;;2.90;0.63;;;;;;;11.39;71.34;100992.03;5003510;28;20030;-84
2022/08/27 01:52:49;;;;;;;2.65;0.90;;;;;;;11.33;71.62;100992.59;4980861;28;20034;-83
2022/08/27 01:55:18;;;;;;;4.20;0.95;;;;;;;11.33;71.47;100995.25;4998570;28;20084;-83
2022/08/27 01:57:45;;;;;;;1.83;0.68;;;;;;;11.33;71.42;100995.25;4987011;28;20433;-83
2022/08/27 02:00:21;;;;;;;2.28;0.70;;;;;;;11.28;71.64;100987.72;5001484;28;21289;-82
2022/08/27 02:02:47;;;;;;;2.88;0.73;;;;;;;11.23;72.00;100986.44;4977751;28;20061;-83
2022/08/27 02:05:14;;;;;;;2.95;0.95;;;;;;;11.17;72.11;100993.09;4994418;28;20034;-83
2022/08/27 02:07:41;;;;;;;3.10;1.33;;;;;;;11.17;71.97;100985.16;4988918;28;20054;-83
2022/08/27 02:10:09;;;;;;;3.50;1.02;;;;;;;11.13;71.97;100989.06;4961678;28;20041;-83
2022/08/27 02:12:35;;;;;;;3.03;1.08;;;;;;;11.06;72.30;100988.75;4975747;28;20047;-83
2022/08/27 02:15:01;;;;;;;6.80;1.20;;;;;;;11.05;72.22;100987.09;5010528;28;20035;-82
2022/08/27 02:17:27;;;;;;;2.50;0.63;;;;;;;11.04;72.28;100982.75;4980960;28;20035;-82
2022/08/27 02:19:53;;;;;;;1.35;0.75;;;;;;;11.06;72.22;100987.91;4990749;28;20522;-83
2022/08/27 02:22:19;;;;;;;3.35;0.80;;;;;;;11.03;72.33;100981.94;4974297;28;20093;-82
2022/08/27 02:24:44;;;;;;;2.63;0.65;;;;;;;10.95;72.08;100978.28;4967234;28;20038;-82
2022/08/27 02:27:10;;;;;;;2.13;0.75;;;;;;;10.92;72.50;100977.56;4962976;28;20089;-82
2022/08/27 02:29:36;;;;;;;2.15;1.05;;;;;;;10.89;72.10;100979.66;4988285;28;20070;-83
2022/08/27 02:32:03;;;;;;;2.67;0.93;;;;;;;10.79;72.51;100975.16;5002736;28;20030;-82
2022/08/27 02:34:28;;;;;;;5.93;1.17;;;;;;;10.68;72.09;100975.25;4993813;28;20031;-81
2022/08/27 02:36:54;;;;;;;4.32;1.35;;;;;;;10.35;72.50;100979.75;4980142;28;20085;-82
2022/08/27 02:39:20;;;;;;;4.43;1.50;;;;;;;10.08;73.29;100975.81;4978488;28;20534;-82
2022/08/27 02:41:47;;;;;;;3.10;1.17;;;;;;;9.84;73.91;100976.91;5010081;28;20051;-82
2022/08/27 02:44:13;;;;;;;2.13;1.02;;;;;;;9.64;74.57;100980.19;4965739;28;20043;-81
2022/08/27 02:46:40;;;;;;;2.42;1.13;;;;;;;9.54;75.24;100979.25;4978840;28;20034;-83
2022/08/27 02:49:08;;;;;;;2.70;1.25;;;;;;;9.58;75.66;100982.50;4995405;28;20046;-82
2022/08/27 02:51:34;;;;;;;2.30;1.00;;;;;;;9.68;75.56;100984.25;5005712;28;20042;-82
2022/08/27 02:54:01;;;;;;;9.20;1.50;;;;;;;9.77;75.28;100985.31;4967461;28;20066;-83
2022/08/27 02:56:27;;;;;;;6.13;1.10;;;;;;;9.84;75.12;100976.91;4984096;28;20092;-83
2022/08/27 02:58:53;;;;;;;7.40;1.40;;;;;;;9.89;74.88;100974.72;4966591;28;20042;-82
2022/08/27 03:01:20;;;;;;;4.45;1.30;;;;;;;9.93;75.00;100982.25;4963302;28;20042;-82
2022/08/27 03:03:46;;;;;;;3.35;1.08;;;;;;;9.99;74.98;100972.97;4986614;28;20042;-82
2022/08/27 03:06:12;;;;;;;2.33;0.98;;;;;;;10.09;75.14;100977.50;4989349;28;20493;-83
2022/08/27 03:08:38;;;;;;;1.63;0.85;;;;;;;10.17;75.12;100975.06;4984241;28;20038;-83
2022/08/27 03:11:06;;;;;;;3.17;0.80;;;;;;;10.27;75.14;100977.78;4974270;28;20031;-83
2022/08/27 03:13:36;;;;;;;5.03;0.90;;;;;;;10.34;74.85;100975.44;4989066;28;20046;-83
2022/08/27 03:16:03;;;;;;;9.85;1.23;;;;;;;10.34;74.35;100964.84;4982085;28;20046;-82
2022/08/27 03:18:31;;;;;;;2.90;0.98;;;;;;;10.35;74.85;100970.00;4988449;28;20046;-83
2022/08/27 03:20:59;;;;;;;7.50;0.80;;;;;;;10.38;74.62;100971.56;4987480;28;20041;-82
2022/08/27 03:23:28;;;;;;;2.15;0.90;;;;;;;10.37;74.53;100970.72;5000146;28;20031;-83
2022/08/27 03:25:57;;;;;;;6.03;0.93;;;;;;;10.40;74.86;100975.75;4946023;28;20039;-82
2022/08/27 03:28:26;;;;;;;4.05;0.95;;;;;;;10.37;74.59;100961.94;5004744;28;20496;-83
2022/08/27 03:30:58;;;;;;;2.58;0.93;;;;;;;10.36;74.82;100968.22;4983027;28;20042;-83
2022/08/27 03:33:25;;;;;;;2.35;0.77;;;;;;;10.36;75.03;100977.00;4999970;28;20066;-83
2022/08/27 03:35:51;;;;;;;4.75;1.05;;;;;;;10.43;74.76;100980.78;4997107;28;20702;-83
2022/08/27 03:38:16;;;;;;;2.28;0.63;;;;;;;10.41;74.89;100972.16;5001813;28;20047;-82
2022/08/27 03:40:43;;;;;;;3.83;0.93;;;;;;;10.42;74.67;100975.63;4983304;28;20042;-83
2022/08/27 03:43:13;;;;;;;4.07;1.30;;;;;;;10.39;74.90;100973.25;4989094;28;20401;-82
2022/08/27 03:45:42;;;;;;;2.53;0.88;;;;;;;10.33;75.10;100973.75;5001018;28;20116;-82
2022/08/27 03:48:09;;;;;;;2.47;0.68;;;;;;;10.27;75.15;100977.78;4972244;28;20043;-82
2022/08/27 03:50:38;;;;;;;2.60;0.70;;;;;;;10.24;75.42;100978.84;4981391;28;20775;-82
2022/08/27 03:53:04;;;;;;;2.97;0.88;;;;;;;10.25;75.65;100982.34;4996045;28;20053;-82
2022/08/27 03:55:30;;;;;;;5.93;1.10;;;;;;;10.23;75.73;100977.19;4993530;28;20038;-83
2022/08/27 03:57:55;;;;;;;4.05;1.17;;;;;;;10.25;75.96;100977.91;4984832;28;20034;-83
2022/08/27 04:00:23;;;;;;;5.75;1.10;;;;;;;10.32;75.68;100969.47;4959615;28;20044;-82
2022/08/27 04:02:49;;;;;;;5.35;1.23;;;;;;;10.36;76.18;100962.94;4964526;28;20121;-82
2022/08/27 04:05:16;;;;;;;5.07;0.98;;;;;;;10.40;75.61;100967.00;5002445;28;20134;-83
2022/08/27 04:07:42;;;;;;;2.90;0.77;;;;;;;10.47;75.89;100965.53;4984472;28;20061;-82
2022/08/27 04:10:11;;;;;;;3.50;0.90;;;;;;;10.56;75.53;100961.25;4964785;28;20042;-83
2022/08/27 04:12:37;;;;;;;3.72;1.25;;;;;;;10.57;75.44;100960.31;4995399;28;20401;-82
2022/08/27 04:15:05;;;;;;;4.53;1.10;;;;;;;10.56;75.39;100961.25;5011515;28;20467;-82
2022/08/27 04:17:31;;;;;;;2.95;0.80;;;;;;;10.56;75.92;100965.72;4984133;28;20034;-83
2022/08/27 04:19:59;;;;;;;3.20;0.82;;;;;;;10.63;75.58;100972.16;4996554;28;20193;-82
2022/08/27 04:22:25;;;;;;;3.75;0.90;;;;;;;10.67;75.68;100958.53;4982744;28;20057;-83
2022/08/27 04:24:51;;;;;;;4.82;0.98;;;;;;;10.73;75.48;100958.97;4947907;28;20546;-83
2022/08/27 04:27:18;;;;;;;7.13;1.10;;;;;;;10.78;75.51;100967.38;5006589;28;20030;-82
2022/08/27 04:29:44;;;;;;;4.35;1.10;;;;;;;10.73;75.46;100958.97;4966390;28;20038;-82
2022/08/27 04:32:10;;;;;;;4.20;0.75;;;;;;;10.71;75.47;100972.34;4999782;28;20046;-82
2022/08/27 04:34:35;;;;;;;5.18;1.38;;;;;;;10.64;75.63;100964.09;4981139;28;20544;-83
2022/08/27 04:37:02;;;;;;;6.45;1.23;;;;;;;10.62;75.84;100950.16;4980626;28;20035;-81
2022/08/27 04:39:29;;;;;;;4.43;1.05;;;;;;;10.64;76.05;100956.16;4979769;28;20042;-82
2022/08/27 04:41:58;;;;;;;2.83;1.00;;;;;;;10.62;76.00;100952.78;4972273;28;20035;-82
2022/08/27 04:44:30;;;;;;;1.55;0.80;;;;;;;10.62;76.29;100950.16;4971805;28;20035;-81
2022/08/27 04:47:01;;;;;;;6.43;1.20;;;;;;;10.66;76.23;100963.97;4947663;28;20035;-82
2022/08/27 04:49:28;;;;;;;3.53;1.02;;;;;;;10.66;76.25;100950.75;4981285;28;20114;-82
2022/08/27 04:51:55;;;;;;;2.92;1.10;;;;;;;10.50;76.23;100941.50;4994992;28;20570;-82
2022/08/27 04:54:21;;;;;;;3.05;1.13;;;;;;;10.41;76.69;100947.53;4978499;28;20062;-82
2022/08/27 04:56:47;;;;;;;2.50;1.20;;;;;;;10.40;76.86;100943.22;4967089;28;20045;-83
2022/08/27 04:59:13;;;;;;;2.28;0.90;;;;;;;10.45;76.65;100951.56;4970166;28;20038;-82
2022/08/27 05:01:41;;;;;;;4.65;1.33;;;;;;;10.52;76.57;100941.34;4984326;28;20031;-83
2022/08/27 05:04:09;;;;;;;4.68;1.15;;;;;;;10.51;76.60;100940.50;4951654;28;20038;-83
2022/08/27 05:06:35;;;;;;;3.35;1.00;;;;;;;10.57;76.35;100935.66;4972594;28;20061;-83
2022/08/27 05:09:02;;;;;;;4.13;0.90;;;;;;;10.57;76.27;100939.16;4977144;28;20042;-82
2022/08/27 05:11:33;;;;;;;3.83;1.23;;;;;;;10.62;76.56;100941.41;5025114;28;20121;-83
2022/08/27 05:14:02;;;;;;;4.93;1.20;;;;;;;10.66;76.39;100935.72;4994713;28;20069;-82
2022/08/27 05:16:28;;;;;;;7.15;1.33;;;;;;;10.70;76.43;100940.75;5010623;28;20029;-83
2022/08/27 05:18:54;;;;;;;3.92;1.48;;;;;;;10.74;76.43;100929.75;4969580;28;20045;-82
2022/08/27 05:21:24;;;;;;;8.95;1.42;;;;;;;10.79;76.18;100929.38;4993959;28;20042;-82
2022/08/27 05:23:52;;;;;;;9.30;1.38;;;;;;;10.78;75.86;100938.28;5011241;28;20108;-82
2022/08/27 05:26:18;;;;;;;3.03;1.17;;;;;;;10.70;76.05;100938.09;5023764;28;20038;-82
2022/08/27 05:28:44;;;;;;;7.13;0.98;;;;;;;10.65;76.17;100943.78;5018053;28;20053;-83
2022/08/27 05:31:11;;;;;;;3.95;0.98;;;;;;;10.60;76.54;100933.59;5016509;28;20045;-83
2022/08/27 05:33:38;;;;;;;1.70;1.00;;;;;;;10.54;76.56;100937.59;4975629;28;20511;-83
2022/08/27 05:36:06;;;;;;;2.65;1.10;;;;;;;10.52;76.52;100944.84;4975663;28;20484;-83
2022/08/27 05:38:32;;;;;;;2.30;0.93;;;;;;;10.54;76.86;100956.09;4973533;28;20030;-82
2022/08/27 05:41:11;;;;;;;5.60;0.90;;;;;;;10.59;76.37;100953.06;5001252;28;20112;-83
2022/08/27 05:43:38;;;;;;;7.95;1.20;;;;;;;10.61;76.29;100961.72;4964779;28;20038;-82
2022/08/27 05:46:11;;;;;;;5.10;1.20;;;;;;;10.56;76.32;100963.09;4968916;28;20522;-83
2022/08/27 05:48:38;;;;;;;2.33;1.20;;;;;;;10.53;76.28;100953.59;4996900;28;20034;-82
2022/08/27 05:51:19;;;;;;;3.58;1.08;;;;;;;10.54;76.19;100957.94;5002716;28;20063;-83
2022/08/27 05:53:45;;;;;;;3.35;1.13;;;;;;;10.58;76.48;100958.47;4981878;28;20046;-83
2022/08/27 05:56:20;;;;;;;2.03;1.17;;;;;;;10.64;76.26;100956.16;5006391;28;20034;-84
2022/08/27 06:01:36;;;;;;;4.60;1.13;;;;;;;10.65;76.34;100957.81;4973014;28;20716;-83
2022/08/27 06:04:03;;;;;;;4.47;1.42;;;;;;;10.68;76.31;100959.38;5025756;28;20038;-81
2022/08/27 06:06:28;;;;;;;4.68;1.80;;;;;;;10.71;76.18;100945.03;4990362;28;20038;-82
2022/08/27 06:08:54;;;;;;;9.90;1.50;;;;;;;10.70;76.63;100954.81;4977960;28;20034;-82
2022/08/27 06:11:20;;;;;;;5.07;1.35;;;;;;;10.69;76.54;100957.59;4970393;28;20042;-82
2022/08/27 06:13:47;;;;;;;2.40;1.02;;;;;;;10.69;76.70;100960.22;4987019;28;20370;-83
2022/08/27 06:16:16;;;;;;;3.58;1.00;;;;;;;10.66;76.40;100962.16;4969642;28;20045;-83
2022/08/27 06:18:45;;;;;;;2.92;1.08;;;;;;;10.67;76.75;100961.19;4976798;28;20117;-84
2022/08/27 06:21:12;;;;;;;2.47;1.05;;;;;;;10.73;76.49;100962.47;4998073;28;20041;-83
2022/08/27 06:23:38;;;;;;;7.65;0.95;;;;;;;10.77;76.62;100960.38;4984590;28;20030;-82
2022/08/27 06:26:10;;;;;;;2.80;1.05;;;;;;;10.81;76.26;100964.44;4962395;28;20032;-83
2022/08/27 06:28:40;;;;;;;1.42;0.88;;;;;;;10.85;76.46;100965.00;5019879;28;20034;-81
2022/08/27 06:31:09;;;;;;;4.35;1.02;;;;;;;10.89;76.45;100969.88;4972461;28;20049;-82
2022/08/27 06:33:36;;;;;;;4.88;1.40;;;;;;;10.92;76.32;100961.69;4976324;28;20656;-82
2022/08/27 06:36:04;;;;;;;3.97;1.00;;;;;;;10.92;76.24;100966.97;4970135;28;20092;-84
2022/08/27 06:38:31;;;;;;;9.40;1.08;;;;;;;10.88;76.50;100962.94;4964702;28;20046;-83
2022/08/27 06:40:57;;;;;;;8.10;1.70;;;;;;;10.80;76.58;100962.75;4974618;28;20038;-83
2022/08/27 06:43:25;;;;;;;5.28;1.80;;;;;;;10.72;77.11;100965.25;4957431;28;20034;-82
2022/08/27 06:45:51;;;;;;;5.47;1.48;;;;;;;10.61;77.37;100966.16;5003995;28;20038;-83
2022/08/27 06:48:17;;;;;;;2.80;1.40;;;;;;;10.72;77.92;100970.53;4981790;28;20042;-83
2022/08/27 06:50:43;;;;;;;3.03;1.10;;;;;;;10.83;77.86;100974.91;4970673;28;20063;-83
2022/08/27 06:53:10;;;;;;;4.28;1.20;;;;;;;10.88;77.86;100968.22;4953472;28;20027;-83
2022/08/27 06:55:44;;;;;;;3.17;1.10;;;;;;;10.95;77.94;100965.03;5002418;28;20034;-82
2022/08/27 06:58:11;;;;;;;3.75;1.33;;;;;;;10.98;78.22;100973.56;4967740;28;20042;-82
2022/08/27 07:00:37;;;;;;;3.90;0.93;;;;;;;11.04;78.28;100974.81;4985596;28;20157;-82
2022/08/27 07:03:04;;;;;;;2.75;1.15;;;;;;;11.07;78.36;100985.13;4986687;28;20039;-82
2022/08/27 07:05:34;;;;;;;5.00;1.10;;;;;;;11.14;78.33;100973.06;5000975;28;20081;-83
2022/08/27 07:08:00;;;;;;;2.30;1.25;;;;;;;11.24;78.44;100974.88;4998059;28;20069;-82
2022/08/27 07:10:27;;;;;;;3.63;1.60;;;;;;;11.32;78.66;100974.19;5018075;28;20029;-82
2022/08/27 07:12:53;;;;;;;3.58;1.20;;;;;;;11.39;79.06;100980.63;4984881;28;20493;-83
2022/08/27 07:15:19;;;;;;;4.32;1.55;;;;;;;11.50;79.09;100980.50;4973502;28;20813;-82
2022/08/27 07:17:44;;;;;;;2.90;1.30;;;;;;;11.62;79.47;100990.97;4946924;28;20038;-83
2022/08/27 07:20:12;;;;;;;4.45;1.58;;;;;;;11.67;80.05;100980.81;4994111;28;20070;-82
2022/08/27 07:22:39;;;;;;;3.75;1.20;;;;;;;11.73;79.94;100982.91;4987259;28;20061;-82
2022/08/27 07:25:08;;;;;;;1.80;1.42;;;;;;;11.75;80.35;100983.56;4977679;28;20137;-82
2022/08/27 07:27:35;;;;;;;4.47;1.42;;;;;;;11.81;80.91;100995.44;5001568;28;20912;-83
2022/08/27 07:30:02;;;;;;;2.20;1.48;;;;;;;11.90;80.78;100997.25;4980419;28;20045;-83
2022/08/27 07:32:28;;;;;;;8.13;2.00;;;;;;;11.99;81.19;100992.91;4991922;28;20054;-83
2022/08/27 07:34:54;;;;;;;6.15;1.75;;;;;;;12.11;81.18;100992.81;4994623;28;20493;-83
2022/08/27 07:37:21;;;;;;;7.30;2.22;;;;;;;12.23;80.86;100993.50;4984317;28;20030;-82
2022/08/27 07:39:47;;;;;;;2.42;1.35;;;;;;;12.34;81.01;100992.50;5013849;28;20141;-83
2022/08/27 07:44:57;;;;;;;7.43;1.90;;;;;;;12.44;80.57;100990.66;4981594;28;20038;-83
2022/08/27 07:47:23;;;;;;;4.72;1.55;;;;;;;12.52;80.69;100987.28;4959177;28;20770;-82
2022/08/27 07:49:49;;;;;;;3.97;1.65;;;;;;;12.60;80.64;100992.72;5001264;28;20038;-83
2022/08/27 07:52:15;;;;;;;5.53;2.00;;;;;;;12.68;80.65;100984.03;4984054;28;20404;-82
2022/08/27 07:54:41;;;;;;;3.97;1.77;;;;;;;12.78;80.61;100987.50;5006875;28;20101;-83
2022/08/27 07:57:10;;;;;;;3.03;1.10;;;;;;;12.89;80.53;100988.28;4983535;28;20033;-82
2022/08/27 07:59:36;;;;;;;6.00;1.10;;;;;;;12.98;80.14;100987.41;5008972;28;20036;-83
2022/08/27 08:02:02;;;;;;;2.63;1.40;;;;;;;13.06;80.05;100985.84;4983788;28;20030;-81
2022/08/27 08:04:28;;;;;;;7.10;1.80;;;;;;;13.14;79.93;100986.78;4960778;28;20099;-82
2022/08/27 08:06:54;;;;;;;3.55;1.00;;;;;;;13.22;79.70;100985.22;4976116;28;20500;-84
2022/08/27 08:09:22;;;;;;;2.70;1.15;;;;;;;13.31;79.92;100988.78;4988432;28;20103;-82
2022/08/27 08:11:50;;;;;;;3.55;0.93;;;;;;;13.38;79.82;100981.88;4973825;28;20037;-83
2022/08/27 08:14:16;;;;;;;3.33;1.00;;;;;;;13.46;79.77;100984.63;4974981;28;20042;-82
2022/08/27 08:16:42;;;;;;;3.05;1.20;;;;;;;13.56;79.26;100986.41;4968793;28;20042;-82
2022/08/27 08:19:08;;;;;;;1.88;1.40;;;;;;;13.64;78.70;100990.00;4996278;28;20314;-83
2022/08/27 08:21:35;;;;;;;3.90;0.95;;;;;;;13.68;78.85;100984.38;4961020;28;20408;-84
2022/08/27 08:24:01;;;;;;;2.80;0.88;;;;;;;13.69;78.81;100989.56;4997466;28;20042;-83
2022/08/27 08:26:27;;;;;;;1.63;0.98;;;;;;;13.72;78.78;100983.09;5000575;28;20041;-83
2022/08/27 08:28:53;;;;;;;2.78;1.00;;;;;;;13.75;78.37;100982.78;4950727;28;20038;-83
2022/08/27 08:31:20;;;;;;;4.25;1.20;;;;;;;13.78;78.44;100982.47;4960195;28;20029;-83
2022/08/27 08:33:49;;;;;;;2.65;0.80;;;;;;;13.87;78.14;100986.88;4991440;28;20515;-83
2022/08/27 08:36:16;;;;;;;2.17;0.70;;;;;;;13.97;77.86;100993.94;4998990;28;20068;-82
2022/08/27 08:38:44;;;;;;;1.75;0.63;;;;;;;14.06;77.68;100989.53;4988108;28;20441;-82
2022/08/27 08:41:49;;;;;;;5.57;0.95;;;;;;;14.14;76.88;100985.09;4994904;28;20026;-83
2022/08/27 08:44:43;;;;;;;1.45;0.60;;;;;;;14.25;76.50;100988.50;4990271;28;20030;-83
2022/08/27 08:47:47;;;;;;;2.25;0.93;;;;;;;14.37;76.05;100987.25;4986080;28;20508;-83
2022/08/27 08:50:24;;;;;;;6.50;1.10;;;;;;;14.54;75.90;100991.84;4968221;28;20165;-83
2022/08/27 08:53:03;;;;;;;4.93;0.88;;;;;;;14.67;75.68;100986.13;4971592;28;20037;-84
2022/08/27 08:55:29;;;;;;;5.93;1.17;;;;;;;14.78;75.63;100983.16;4984927;28;20128;-84
2022/08/27 08:58:20;;;;;;;2.63;0.82;;;;;;;14.91;75.12;100985.41;4969166;28;20133;-83
2022/08/27 09:00:56;;;;;;;1.77;0.77;;;;;;;15.09;74.73;100982.66;4968829;28;20039;-83
2022/08/27 09:03:22;;;;;;;1.88;0.70;;;;;;;15.19;74.46;100984.34;4986368;28;20029;-83
2022/08/27 09:05:57;;;;;;;3.67;1.00;;;;;;;15.28;74.00;100979.88;5018793;28;20037;-83
2022/08/27 09:08:35;;;;;;;2.70;0.75;;;;;;;15.29;73.80;100981.56;4985786;28;20049;-83
2022/08/27 09:11:24;;;;;;;5.07;1.23;;;;;;;15.28;73.39;100983.38;4984016;28;20505;-82
2022/08/27 09:14:04;;;;;;;3.35;0.75;;;;;;;15.33;73.30;100978.41;4986735;28;20133;-81
2022/08/27 09:16:31;;;;;;;5.70;1.10;;;;;;;15.38;73.32;100975.25;4969377;28;20440;-82
2022/08/27 09:18:57;;;;;;;2.50;0.70;;;;;;;15.49;73.08;100985.63;5017566;28;20046;-80
2022/08/27 09:21:40;;;;;;;2.60;0.85;;;;;;;15.62;72.80;100981.63;4969701;28;20045;-78
2022/08/27 09:24:15;;;;;;;3.58;0.80;;;;;;;15.70;72.28;100988.78;4982543;28;20037;-82
2022/08/27 09:26:43;;;;;;;3.30;0.80;;;;;;;15.80;71.99;100993.97;4985347;28;20046;-82
2022/08/27 09:29:20;;;;;;;4.53;1.02;;;;;;;15.88;72.00;100996.63;4963123;28;20033;-83
2022/08/27 09:31:56;;;;;;;2.95;0.77;;;;;;;16.01;71.55;100995.34;4996033;28;20038;-82
2022/08/27 09:34:25;;;;;;;2.63;0.50;;;;;;;16.14;71.07;100995.66;4974983;28;20091;-81
2022/08/27 09:37:00;;;;;;;2.60;0.65;;;;;;;16.29;70.39;100993.16;5013601;28;20033;-81
2022/08/27 09:39:51;;;;;;;2.22;0.50;;;;;;;16.40;69.51;100999.13;4989288;28;20453;-82
2022/08/27 09:42:29;;;;;;;4.60;0.40;;;;;;;16.52;68.59;100991.59;4977205;28;20033;-82
2022/08/27 09:44:55;;;;;;;2.75;0.40;;;;;;;16.61;68.04;100986.06;4976846;28;20047;-82
2022/08/27 09:47:22;;;;;;;8.00;0.73;;;;;;;16.62;67.67;100989.59;4986622;28;20038;-81
2022/08/27 09:49:59;;;;;;;3.80;0.57;;;;;;;16.73;66.96;100989.22;4990267;28;20035;-80
2022/08/27 09:52:47;;;;;;;5.35;1.00;;;;;;;16.83;65.91;100991.66;4972569;28;20385;-80
2022/08/27 09:55:45;;;;;;;2.75;0.50;;;;;;;16.98;65.13;100988.28;4987049;28;20053;-80
2022/08/27 09:58:20;;;;;;;9.10;0.60;;;;;;;17.13;64.60;100982.25;4988415;28;20553;-83
2022/08/27 10:00:48;;;;;;;3.55;0.50;;;;;;;17.19;64.18;100985.06;5018596;28;20041;-81
2022/08/27 10:03:14;;;;;;;2.45;0.40;;;;;;;17.26;63.33;100977.19;5010489;28;20025;-81
2022/08/27 10:05:49;;;;;;;1.95;0.40;;;;;;;17.33;62.71;100980.81;4949181;28;20073;-80
2022/08/27 10:08:27;;;;;;;0.82;0.30;;;;;;;17.39;62.32;100973.91;5005846;28;20497;-81
2022/08/27 10:10:57;;;;;;;3.30;0.60;;;;;;;17.52;61.85;100978.66;4994353;28;20041;-80
2022/08/27 10:13:26;;;;;;;3.58;0.70;;;;;;;17.61;61.51;100977.59;5003756;28;20057;-82
2022/08/27 10:16:11;;;;;;;2.85;0.60;;;;;;;17.70;60.28;100974.88;5002513;28;20619;-81
2022/08/27 10:18:40;;;;;;;1.90;0.50;;;;;;;17.84;60.42;100981.28;5016000;28;20030;-78
2022/08/27 10:21:22;;;;;;;1.70;0.73;;;;;;;17.94;59.82;100979.22;4996987;28;20395;-81
2022/08/27 10:24:11;;;;;;;5.70;0.52;;;;;;;18.01;58.87;100975.81;4986678;28;20049;-80
2022/08/27 10:27:07;;;;;;;4.63;0.60;;;;;;;18.14;58.22;100975.22;4981363;28;20044;-80
2022/08/27 10:29:42;;;;;;;4.50;0.57;;;;;;;18.14;57.87;100970.69;4979435;28;20033;-78
2022/08/27 10:32:53;;;;;;;1.80;0.43;;;;;;;18.08;56.20;100968.72;4984736;28;20535;-81
2022/08/27 10:35:23;;;;;;;1.55;0.30;;;;;;;18.07;58.03;100970.56;4960188;28;20823;-80
2022/08/27 10:38:21;;;;;;;3.00;0.57;;;;;;;18.03;57.23;100971.94;5011669;28;20034;-79
2022/08/27 10:41:14;;;;;;;1.65;0.40;;;;;;;18.18;56.20;100971.16;4977984;28;20121;-81
2022/08/27 10:43:52;;;;;;;4.80;0.68;;;;;;;18.23;57.35;100966.09;5003374;28;20034;-81
2022/08/27 10:46:36;;;;;;;3.45;0.70;;;;;;;18.40;56.90;100966.75;4984647;28;20048;-80
2022/08/27 10:49:23;;;;;;;2.72;0.60;;;;;;;18.62;56.51;100963.38;5003356;28;20040;-81
2022/08/27 10:52:00;;;;;;;3.03;0.45;;;;;;;18.71;56.11;100963.06;4987143;28;20040;-81
2022/08/27 10:54:42;;;;;;;6.13;0.90;;;;;;;18.87;55.31;100963.06;5016029;28;20042;-79
2022/08/27 10:57:21;;;;;;;1.75;0.68;;;;;;;18.92;55.14;100949.94;4996292;28;20038;-81
2022/08/27 10:59:58;;;;;;;4.13;0.98;;;;;;;19.00;55.05;100952.50;4966342;28;20550;-80
2022/08/27 11:02:38;;;;;;;4.97;0.60;;;;;;;19.01;54.39;100950.66;4989425;28;20511;-80
2022/08/27 11:05:28;;;;;;;3.67;0.55;;;;;;;18.99;54.66;100955.34;4956846;28;20049;-81
2022/08/27 11:07:58;;;;;;;1.88;0.50;;;;;;;19.09;54.97;100948.75;4965255;28;20046;-80
2022/08/27 11:10:28;;;;;;;3.60;0.40;;;;;;;19.17;54.48;100950.47;4965036;28;20077;-82
2022/08/27 11:12:58;;;;;;;3.00;0.95;;;;;;;19.27;54.09;100942.09;4987209;28;20038;-81
2022/08/27 11:15:32;;;;;;;4.30;0.45;;;;;;;19.28;54.04;100938.41;4984048;28;20034;-81
2022/08/27 11:18:07;;;;;;;1.90;0.55;;;;;;;19.36;53.83;100945.50;4998297;28;20038;-80
2022/08/27 11:20:39;;;;;;;4.82;1.10;;;;;;;19.37;53.98;100938.28;4984847;28;20045;-80
2022/08/27 11:23:10;;;;;;;5.05;1.15;;;;;;;19.36;53.65;100939.31;4969188;28;20101;-79
2022/08/27 11:25:56;;;;;;;7.38;0.63;;;;;;;19.31;53.65;100942.56;5003897;28;20034;-82
2022/08/27 11:28:28;;;;;;;1.23;0.60;;;;;;;19.40;53.88;100932.56;5018282;28;20392;-79
2022/08/27 11:31:19;;;;;;;5.32;0.82;;;;;;;19.55;53.12;100936.00;5003570;28;20030;-81
2022/08/27 11:33:49;;;;;;;6.32;0.63;;;;;;;19.71;52.77;100939.44;4980389;28;20056;-79
2022/08/27 11:36:52;;;;;;;5.35;0.82;;;;;;;19.85;52.15;100935.00;5001108;28;20034;-80
2022/08/27 11:39:50;;;;;;;1.90;0.47;;;;;;;20.03;51.77;100934.56;4989520;28;20120;-79
2022/08/27 11:42:40;;;;;;;3.40;0.50;;;;;;;20.19;51.16;100925.34;4978169;28;20432;-79
2022/08/27 11:45:20;;;;;;;2.35;0.40;;;;;;;20.28;50.95;100930.56;4969919;28;20089;-80
2022/08/27 11:48:01;;;;;;;3.33;1.02;;;;;;;20.39;50.26;100929.19;4997056;28;20036;-79